sensor_id;sensor_type;location;lat;lon;timestamp;pressure;altitude;pressure_sealevel;temperature;humidity
12775;BME280;6451;42.630;23.382;2023-10-09T00:01:50;94876.38;;;18.28;100.00
12775;BME280;6451;42.630;23.382;2023-10-09T00:04:18;94868.03;;;18.14;100.00
12775;BME280;6451;42.630;23.382;2023-10-09T00:06:46;94876.72;;;18.20;100.00
12775;BME280;6451;42.630;23.382;2023-10-09T00:09:15;94865.22;;;18.03;100.00
12775;BME280;6451;42.630;23.382;2023-10-09T00:11:56;94842.41;;;17.96;100.00
12775;BME280;6451;42.630;23.382;2023-10-09T00:14:24;94866.47;;;18.13;100.00
12775;BME280;6451;42.630;23.382;2023-10-09T00:16:52;94871.91;;;18.06;100.00
12775;BME280;6451;42.630;23.382;2023-10-09T00:19:31;94870.66;;;18.00;100.00
12775;BME280;6451;42.630;23.382;2023-10-09T00:21:59;94886.34;;;17.99;100.00
12775;BME280;6451;42.630;23.382;2023-10-09T00:24:33;94879.63;;;17.90;100.00
12775;BME280;6451;42.630;23.382;2023-10-09T00:27:00;94867.53;;;17.98;100.00
12775;BME280;6451;42.630;23.382;2023-10-09T00:29:37;94866.69;;;17.94;100.00
12775;BME280;6451;42.630;23.382;2023-10-09T00:32:10;94874.47;;;17.85;100.00
12775;BME280;6451;42.630;23.382;2023-10-09T00:34:42;94859.56;;;17.86;100.00
12775;BME280;6451;42.630;23.382;2023-10-09T00:37:09;94865.75;;;17.72;100.00
12775;BME280;6451;42.630;23.382;2023-10-09T00:39:43;94850.31;;;17.60;100.00
12775;BME280;6451;42.630;23.382;2023-10-09T00:42:11;94871.88;;;17.62;100.00
12775;BME280;6451;42.630;23.382;2023-10-09T00:44:40;94879.31;;;17.58;100.00
12775;BME280;6451;42.630;23.382;2023-10-09T00:47:09;94870.31;;;17.61;100.00
12775;BME280;6451;42.630;23.382;2023-10-09T00:49:58;94878.84;;;17.52;100.00
12775;BME280;6451;42.630;23.382;2023-10-09T00:52:28;94875.72;;;17.54;100.00
12775;BME280;6451;42.630;23.382;2023-10-09T00:55:07;94876.03;;;17.45;100.00
12775;BME280;6451;42.630;23.382;2023-10-09T00:57:39;94873.34;;;17.48;100.00
12775;BME280;6451;42.630;23.382;2023-10-09T01:00:08;94889.34;;;17.43;100.00
12775;BME280;6451;42.630;23.382;2023-10-09T01:02:53;94881.50;;;17.41;100.00
12775;BME280;6451;42.630;23.382;2023-10-09T01:05:36;94894.69;;;17.29;100.00
12775;BME280;6451;42.630;23.382;2023-10-09T01:08:04;94872.19;;;17.16;100.00
12775;BME280;6451;42.630;23.382;2023-10-09T01:10:46;94884.38;;;17.18;100.00
12775;BME280;6451;42.630;23.382;2023-10-09T01:13:16;94897.34;;;17.21;100.00
12775;BME280;6451;42.630;23.382;2023-10-09T01:15:44;94895.22;;;17.08;100.00
12775;BME280;6451;42.630;23.382;2023-10-09T01:18:14;94903.50;;;17.11;100.00
12775;BME280;6451;42.630;23.382;2023-10-09T01:20:41;94889.44;;;16.83;100.00
12775;BME280;6451;42.630;23.382;2023-10-09T01:23:12;94944.09;;;17.02;100.00
12775;BME280;6451;42.630;23.382;2023-10-09T01:25:39;94930.66;;;16.90;100.00
12775;BME280;6451;42.630;23.382;2023-10-09T01:28:12;94924.59;;;16.77;100.00
12775;BME280;6451;42.630;23.382;2023-10-09T01:30:42;94879.91;;;16.47;100.00
12775;BME280;6451;42.630;23.382;2023-10-09T01:33:09;94931.13;;;16.69;100.00
12775;BME280;6451;42.630;23.382;2023-10-09T01:35:48;94894.56;;;16.31;100.00
12775;BME280;6451;42.630;23.382;2023-10-09T01:38:19;94930.47;;;16.49;100.00
12775;BME280;6451;42.630;23.382;2023-10-09T01:40:56;94950.97;;;16.62;100.00
12775;BME280;6451;42.630;23.382;2023-10-09T01:43:32;94935.53;;;16.24;100.00
12775;BME280;6451;42.630;23.382;2023-10-09T01:46:00;94962.13;;;16.24;100.00
12775;BME280;6451;42.630;23.382;2023-10-09T01:48:29;94970.72;;;16.22;100.00
12775;BME280;6451;42.630;23.382;2023-10-09T01:50:58;94968.53;;;16.08;100.00
12775;BME280;6451;42.630;23.382;2023-10-09T01:53:28;94963.00;;;16.05;100.00
12775;BME280;6451;42.630;23.382;2023-10-09T01:55:56;94957.03;;;15.99;100.00
12775;BME280;6451;42.630;23.382;2023-10-09T01:58:25;94972.56;;;15.92;100.00
12775;BME280;6451;42.630;23.382;2023-10-09T02:00:53;94978.44;;;15.94;100.00
12775;BME280;6451;42.630;23.382;2023-10-09T02:03:21;94972.91;;;15.90;100.00
12775;BME280;6451;42.630;23.382;2023-10-09T02:05:51;94970.84;;;15.83;100.00
12775;BME280;6451;42.630;23.382;2023-10-09T02:08:25;94947.06;;;15.45;100.00
12775;BME280;6451;42.630;23.382;2023-10-09T02:10:56;94987.56;;;15.59;100.00
12775;BME280;6451;42.630;23.382;2023-10-09T02:13:23;94984.94;;;15.43;100.00
12775;BME280;6451;42.630;23.382;2023-10-09T02:15:56;94980.31;;;15.47;100.00
12775;BME280;6451;42.630;23.382;2023-10-09T02:18:38;94952.75;;;15.17;100.00
12775;BME280;6451;42.630;23.382;2023-10-09T02:21:19;94995.22;;;15.30;100.00
12775;BME280;6451;42.630;23.382;2023-10-09T02:23:54;94994.56;;;15.18;100.00
12775;BME280;6451;42.630;23.382;2023-10-09T02:26:24;94991.81;;;15.18;100.00
12775;BME280;6451;42.630;23.382;2023-10-09T02:28:52;94982.19;;;15.05;100.00
12775;BME280;6451;42.630;23.382;2023-10-09T02:31:25;95005.38;;;15.11;100.00
12775;BME280;6451;42.630;23.382;2023-10-09T02:34:01;95004.84;;;15.05;100.00
12775;BME280;6451;42.630;23.382;2023-10-09T02:36:31;94998.22;;;15.06;100.00
12775;BME280;6451;42.630;23.382;2023-10-09T02:39:00;94991.94;;;14.86;100.00
12775;BME280;6451;42.630;23.382;2023-10-09T02:41:28;95030.19;;;14.86;100.00
12775;BME280;6451;42.630;23.382;2023-10-09T02:43:59;95040.41;;;14.89;100.00
12775;BME280;6451;42.630;23.382;2023-10-09T02:46:36;95037.41;;;14.94;100.00
12775;BME280;6451;42.630;23.382;2023-10-09T02:49:07;95039.28;;;14.90;100.00
12775;BME280;6451;42.630;23.382;2023-10-09T02:51:35;95046.09;;;14.81;100.00
12775;BME280;6451;42.630;23.382;2023-10-09T02:54:07;95043.69;;;14.79;100.00
12775;BME280;6451;42.630;23.382;2023-10-09T02:56:45;95037.16;;;14.84;100.00
12775;BME280;6451;42.630;23.382;2023-10-09T02:59:13;95032.06;;;14.82;100.00
12775;BME280;6451;42.630;23.382;2023-10-09T03:01:40;95020.38;;;14.66;100.00
12775;BME280;6451;42.630;23.382;2023-10-09T03:04:08;95024.69;;;14.67;100.00
12775;BME280;6451;42.630;23.382;2023-10-09T03:06:41;94996.59;;;14.35;100.00
12775;BME280;6451;42.630;23.382;2023-10-09T03:09:15;95030.53;;;14.50;100.00
12775;BME280;6451;42.630;23.382;2023-10-09T03:11:54;95042.94;;;14.47;100.00
12775;BME280;6451;42.630;23.382;2023-10-09T03:14:25;95064.69;;;14.43;100.00
12775;BME280;6451;42.630;23.382;2023-10-09T03:16:54;95065.38;;;14.40;100.00
12775;BME280;6451;42.630;23.382;2023-10-09T03:19:21;95044.50;;;14.16;100.00
12775;BME280;6451;42.630;23.382;2023-10-09T03:21:48;95068.75;;;14.34;100.00
12775;BME280;6451;42.630;23.382;2023-10-09T03:24:17;95044.66;;;14.08;100.00
12775;BME280;6451;42.630;23.382;2023-10-09T03:26:48;95062.63;;;14.09;100.00
12775;BME280;6451;42.630;23.382;2023-10-09T03:29:16;95081.28;;;14.07;100.00
12775;BME280;6451;42.630;23.382;2023-10-09T03:31:45;95091.78;;;14.05;100.00
12775;BME280;6451;42.630;23.382;2023-10-09T03:34:12;95073.16;;;13.95;100.00
12775;BME280;6451;42.630;23.382;2023-10-09T03:36:39;95081.16;;;13.87;100.00
12775;BME280;6451;42.630;23.382;2023-10-09T03:39:09;95072.69;;;13.77;100.00
12775;BME280;6451;42.630;23.382;2023-10-09T03:41:51;95054.00;;;13.63;100.00
12775;BME280;6451;42.630;23.382;2023-10-09T03:44:21;95088.06;;;13.69;100.00
12775;BME280;6451;42.630;23.382;2023-10-09T03:46:48;95071.84;;;13.60;100.00
12775;BME280;6451;42.630;23.382;2023-10-09T03:49:16;95081.25;;;13.63;100.00
12775;BME280;6451;42.630;23.382;2023-10-09T03:51:48;95085.94;;;13.62;100.00
12775;BME280;6451;42.630;23.382;2023-10-09T03:54:16;95061.13;;;13.40;100.00
12775;BME280;6451;42.630;23.382;2023-10-09T03:56:47;95087.81;;;13.46;100.00
12775;BME280;6451;42.630;23.382;2023-10-09T03:59:15;95075.91;;;13.39;100.00
12775;BME280;6451;42.630;23.382;2023-10-09T04:01:44;95091.97;;;13.56;100.00
12775;BME280;6451;42.630;23.382;2023-10-09T04:04:11;95096.84;;;13.34;100.00
12775;BME280;6451;42.630;23.382;2023-10-09T04:06:40;95091.69;;;13.33;100.00
12775;BME280;6451;42.630;23.382;2023-10-09T04:09:08;95099.78;;;13.29;100.00
12775;BME280;6451;42.630;23.382;2023-10-09T04:11:54;95082.53;;;13.25;100.00
12775;BME280;6451;42.630;23.382;2023-10-09T04:14:46;95086.50;;;13.16;100.00
12775;BME280;6451;42.630;23.382;2023-10-09T04:17:21;95079.34;;;13.11;100.00
12775;BME280;6451;42.630;23.382;2023-10-09T04:20:04;95088.00;;;13.13;100.00
12775;BME280;6451;42.630;23.382;2023-10-09T04:22:57;95077.22;;;13.04;100.00
12775;BME280;6451;42.630;23.382;2023-10-09T04:25:31;95081.09;;;13.03;100.00
12775;BME280;6451;42.630;23.382;2023-10-09T04:28:08;95082.97;;;13.15;100.00
12775;BME280;6451;42.630;23.382;2023-10-09T04:30:37;95079.59;;;13.06;100.00
12775;BME280;6451;42.630;23.382;2023-10-09T04:33:09;95090.25;;;13.11;100.00
12775;BME280;6451;42.630;23.382;2023-10-09T04:35:53;95093.78;;;13.12;100.00
12775;BME280;6451;42.630;23.382;2023-10-09T04:38:34;95095.81;;;13.15;100.00
12775;BME280;6451;42.630;23.382;2023-10-09T04:41:05;95095.25;;;13.09;100.00
12775;BME280;6451;42.630;23.382;2023-10-09T04:43:33;95089.69;;;13.05;100.00
12775;BME280;6451;42.630;23.382;2023-10-09T04:46:00;95107.50;;;13.03;100.00
12775;BME280;6451;42.630;23.382;2023-10-09T04:48:38;95100.34;;;13.11;100.00
12775;BME280;6451;42.630;23.382;2023-10-09T04:51:05;95099.47;;;13.06;100.00
12775;BME280;6451;42.630;23.382;2023-10-09T04:54:00;95054.66;;;12.92;100.00
12775;BME280;6451;42.630;23.382;2023-10-09T04:56:40;95103.31;;;13.30;100.00
12775;BME280;6451;42.630;23.382;2023-10-09T04:59:18;95104.22;;;13.22;100.00
12775;BME280;6451;42.630;23.382;2023-10-09T05:01:50;95113.66;;;13.12;100.00
12775;BME280;6451;42.630;23.382;2023-10-09T05:04:28;95123.66;;;13.20;100.00
12775;BME280;6451;42.630;23.382;2023-10-09T05:07:07;95131.47;;;13.09;100.00
12775;BME280;6451;42.630;23.382;2023-10-09T05:10:12;95143.06;;;13.06;100.00
12775;BME280;6451;42.630;23.382;2023-10-09T05:12:43;95131.03;;;13.07;100.00
12775;BME280;6451;42.630;23.382;2023-10-09T05:15:13;95140.44;;;13.10;100.00
12775;BME280;6451;42.630;23.382;2023-10-09T05:17:40;95127.97;;;12.97;100.00
12775;BME280;6451;42.630;23.382;2023-10-09T05:20:18;95133.88;;;12.99;100.00
12775;BME280;6451;42.630;23.382;2023-10-09T05:23:03;95130.22;;;13.07;100.00
12775;BME280;6451;42.630;23.382;2023-10-09T05:25:49;95132.59;;;13.08;100.00
12775;BME280;6451;42.630;23.382;2023-10-09T05:28:21;95137.13;;;13.17;100.00
12775;BME280;6451;42.630;23.382;2023-10-09T05:31:02;95153.38;;;13.13;100.00
12775;BME280;6451;42.630;23.382;2023-10-09T05:33:32;95137.69;;;13.10;100.00
12775;BME280;6451;42.630;23.382;2023-10-09T05:36:03;95025.75;;;12.38;98.86
12775;BME280;6451;42.630;23.382;2023-10-09T05:38:57;95158.13;;;13.16;97.99
12775;BME280;6451;42.630;23.382;2023-10-09T05:41:24;95161.44;;;13.09;96.83
12775;BME280;6451;42.630;23.382;2023-10-09T05:44:12;95151.44;;;13.14;97.89
12775;BME280;6451;42.630;23.382;2023-10-09T05:47:02;95155.75;;;13.15;95.60
12775;BME280;6451;42.630;23.382;2023-10-09T05:49:47;95177.91;;;13.25;95.26
12775;BME280;6451;42.630;23.382;2023-10-09T05:52:29;95173.69;;;13.40;94.85
12775;BME280;6451;42.630;23.382;2023-10-09T05:54:58;95181.53;;;13.42;93.70
12775;BME280;6451;42.630;23.382;2023-10-09T05:57:42;95181.53;;;13.42;92.83
12775;BME280;6451;42.630;23.382;2023-10-09T06:00:26;95183.25;;;13.46;91.85
12775;BME280;6451;42.630;23.382;2023-10-09T06:03:10;95188.81;;;13.50;90.63
12775;BME280;6451;42.630;23.382;2023-10-09T06:06:00;95170.44;;;13.34;90.07
12775;BME280;6451;42.630;23.382;2023-10-09T06:08:32;95214.91;;;13.63;88.30
12775;BME280;6451;42.630;23.382;2023-10-09T06:11:34;95221.16;;;13.63;86.02
12775;BME280;6451;42.630;23.382;2023-10-09T06:14:07;95226.50;;;13.60;83.06
12775;BME280;6451;42.630;23.382;2023-10-09T06:16:40;95181.41;;;13.50;83.10
12775;BME280;6451;42.630;23.382;2023-10-09T06:19:08;95142.16;;;13.27;82.81
12775;BME280;6451;42.630;23.382;2023-10-09T06:21:37;95201.91;;;13.72;82.81
12775;BME280;6451;42.630;23.382;2023-10-09T06:24:23;95234.06;;;13.79;81.75
12775;BME280;6451;42.630;23.382;2023-10-09T06:26:59;95227.59;;;13.71;79.87
12775;BME280;6451;42.630;23.382;2023-10-09T06:29:40;95212.53;;;13.61;78.65
12775;BME280;6451;42.630;23.382;2023-10-09T06:32:40;95212.25;;;13.79;77.82
12775;BME280;6451;42.630;23.382;2023-10-09T06:35:17;95225.75;;;13.87;77.98
12775;BME280;6451;42.630;23.382;2023-10-09T06:37:48;95211.00;;;13.88;76.76
12775;BME280;6451;42.630;23.382;2023-10-09T06:40:35;95222.66;;;14.01;77.11
12775;BME280;6451;42.630;23.382;2023-10-09T06:43:19;95227.03;;;14.18;75.81
12775;BME280;6451;42.630;23.382;2023-10-09T06:45:55;95229.47;;;13.95;76.00
12775;BME280;6451;42.630;23.382;2023-10-09T06:48:23;95228.16;;;14.17;75.76
12775;BME280;6451;42.630;23.382;2023-10-09T06:51:13;95226.91;;;14.27;74.97
12775;BME280;6451;42.630;23.382;2023-10-09T06:54:02;95231.41;;;14.35;73.58
12775;BME280;6451;42.630;23.382;2023-10-09T06:56:34;95219.66;;;14.46;73.92
12775;BME280;6451;42.630;23.382;2023-10-09T06:59:19;95224.09;;;14.39;72.13
12775;BME280;6451;42.630;23.382;2023-10-09T07:01:50;95228.41;;;14.40;72.11
12775;BME280;6451;42.630;23.382;2023-10-09T07:04:30;95222.22;;;14.55;70.18
12775;BME280;6451;42.630;23.382;2023-10-09T07:07:24;95247.19;;;14.69;69.10
12775;BME280;6451;42.630;23.382;2023-10-09T07:09:52;95243.72;;;14.57;68.35
12775;BME280;6451;42.630;23.382;2023-10-09T07:12:36;95234.72;;;14.56;68.43
12775;BME280;6451;42.630;23.382;2023-10-09T07:15:10;95234.63;;;14.81;67.90
12775;BME280;6451;42.630;23.382;2023-10-09T07:17:55;95222.16;;;14.39;68.09
12775;BME280;6451;42.630;23.382;2023-10-09T07:20:42;95231.47;;;14.51;66.42
12775;BME280;6451;42.630;23.382;2023-10-09T07:23:26;95231.22;;;14.71;66.69
12775;BME280;6451;42.630;23.382;2023-10-09T07:26:02;95247.03;;;14.78;62.78
12775;BME280;6451;42.630;23.382;2023-10-09T07:28:44;95240.50;;;14.67;62.85
12775;BME280;6451;42.630;23.382;2023-10-09T07:31:17;95229.03;;;14.77;62.84
12775;BME280;6451;42.630;23.382;2023-10-09T07:34:05;95231.72;;;14.89;61.10
12775;BME280;6451;42.630;23.382;2023-10-09T07:36:53;95217.50;;;14.84;59.23
12775;BME280;6451;42.630;23.382;2023-10-09T07:39:23;95210.09;;;14.84;58.02
12775;BME280;6451;42.630;23.382;2023-10-09T07:42:00;95225.19;;;15.10;58.49
12775;BME280;6451;42.630;23.382;2023-10-09T07:44:41;95252.00;;;14.88;59.18
12775;BME280;6451;42.630;23.382;2023-10-09T07:47:18;95230.88;;;14.57;57.77
12775;BME280;6451;42.630;23.382;2023-10-09T07:50:06;95232.22;;;14.79;57.56
12775;BME280;6451;42.630;23.382;2023-10-09T07:52:36;95235.91;;;14.87;58.33
12775;BME280;6451;42.630;23.382;2023-10-09T07:55:10;95219.34;;;14.80;55.70
12775;BME280;6451;42.630;23.382;2023-10-09T07:57:51;95222.38;;;14.90;54.71
12775;BME280;6451;42.630;23.382;2023-10-09T08:00:18;95219.81;;;14.82;55.06
12775;BME280;6451;42.630;23.382;2023-10-09T08:03:23;95244.06;;;15.15;54.90
12775;BME280;6451;42.630;23.382;2023-10-09T08:05:51;95232.91;;;14.60;54.25
12775;BME280;6451;42.630;23.382;2023-10-09T08:08:32;95252.06;;;14.92;55.81
12775;BME280;6451;42.630;23.382;2023-10-09T08:11:29;95245.56;;;14.96;55.28
12775;BME280;6451;42.630;23.382;2023-10-09T08:14:09;95232.94;;;15.08;53.85
12775;BME280;6451;42.630;23.382;2023-10-09T08:16:47;95229.53;;;15.11;53.74
12775;BME280;6451;42.630;23.382;2023-10-09T08:19:14;95241.50;;;15.22;54.32
12775;BME280;6451;42.630;23.382;2023-10-09T08:21:58;95213.91;;;15.27;54.18
12775;BME280;6451;42.630;23.382;2023-10-09T08:24:42;95232.22;;;15.42;53.85
12775;BME280;6451;42.630;23.382;2023-10-09T08:27:16;95240.44;;;15.42;52.38
12775;BME280;6451;42.630;23.382;2023-10-09T08:30:12;95231.09;;;15.12;52.45
12775;BME280;6451;42.630;23.382;2023-10-09T08:32:54;95212.75;;;15.12;53.80
12775;BME280;6451;42.630;23.382;2023-10-09T08:35:27;95233.38;;;15.25;52.71
12775;BME280;6451;42.630;23.382;2023-10-09T08:37:55;95220.69;;;15.01;52.83
12775;BME280;6451;42.630;23.382;2023-10-09T08:40:29;95196.19;;;15.05;53.24
12775;BME280;6451;42.630;23.382;2023-10-09T08:43:08;95195.28;;;15.17;52.52
12775;BME280;6451;42.630;23.382;2023-10-09T08:45:38;95193.31;;;15.49;51.58
12775;BME280;6451;42.630;23.382;2023-10-09T08:48:07;95167.44;;;15.62;50.94
12775;BME280;6451;42.630;23.382;2023-10-09T08:50:38;95193.41;;;15.88;51.45
12775;BME280;6451;42.630;23.382;2023-10-09T08:53:05;95200.16;;;15.58;48.51
12775;BME280;6451;42.630;23.382;2023-10-09T08:55:32;95199.94;;;15.32;48.31
12775;BME280;6451;42.630;23.382;2023-10-09T08:58:01;95182.22;;;15.42;49.85
12775;BME280;6451;42.630;23.382;2023-10-09T09:00:32;95176.97;;;15.52;50.12
12775;BME280;6451;42.630;23.382;2023-10-09T09:02:59;95177.31;;;15.67;50.49
12775;BME280;6451;42.630;23.382;2023-10-09T09:05:27;95189.22;;;15.58;50.67
12775;BME280;6451;42.630;23.382;2023-10-09T09:07:55;95179.91;;;15.79;50.24
12775;BME280;6451;42.630;23.382;2023-10-09T09:10:27;95145.22;;;15.83;49.88
12775;BME280;6451;42.630;23.382;2023-10-09T09:13:02;95161.34;;;15.88;48.04
12775;BME280;6451;42.630;23.382;2023-10-09T09:15:31;95184.97;;;15.96;47.28
12775;BME280;6451;42.630;23.382;2023-10-09T09:18:04;95191.63;;;15.95;46.20
12775;BME280;6451;42.630;23.382;2023-10-09T09:20:36;95192.88;;;16.01;46.22
12775;BME280;6451;42.630;23.382;2023-10-09T09:23:09;95152.69;;;15.86;46.89
12775;BME280;6451;42.630;23.382;2023-10-09T09:25:41;95185.97;;;16.07;46.55
12775;BME280;6451;42.630;23.382;2023-10-09T09:28:15;95190.47;;;15.96;46.30
12775;BME280;6451;42.630;23.382;2023-10-09T09:30:47;95192.09;;;15.81;46.26
12775;BME280;6451;42.630;23.382;2023-10-09T09:33:20;95181.16;;;16.01;45.35
12775;BME280;6451;42.630;23.382;2023-10-09T09:35:59;95169.78;;;15.99;46.15
12775;BME280;6451;42.630;23.382;2023-10-09T09:38:28;95197.72;;;15.89;45.41
12775;BME280;6451;42.630;23.382;2023-10-09T09:41:07;95184.03;;;16.08;45.08
12775;BME280;6451;42.630;23.382;2023-10-09T09:43:36;95169.84;;;16.22;44.27
12775;BME280;6451;42.630;23.382;2023-10-09T09:46:07;95168.03;;;16.10;44.62
12775;BME280;6451;42.630;23.382;2023-10-09T09:48:37;95161.19;;;16.20;44.58
12775;BME280;6451;42.630;23.382;2023-10-09T09:51:13;95154.91;;;16.38;44.59
12775;BME280;6451;42.630;23.382;2023-10-09T09:53:43;95161.78;;;16.52;44.42
12775;BME280;6451;42.630;23.382;2023-10-09T09:56:14;95151.63;;;16.52;43.84
12775;BME280;6451;42.630;23.382;2023-10-09T09:58:50;95183.66;;;16.29;44.40
12775;BME280;6451;42.630;23.382;2023-10-09T10:01:20;95121.16;;;16.11;44.67
12775;BME280;6451;42.630;23.382;2023-10-09T10:03:54;95148.28;;;16.62;44.35
12775;BME280;6451;42.630;23.382;2023-10-09T10:06:24;95134.03;;;16.53;44.19
12775;BME280;6451;42.630;23.382;2023-10-09T10:08:52;95122.78;;;16.58;44.11
12775;BME280;6451;42.630;23.382;2023-10-09T10:11:41;95134.06;;;16.76;43.77
12775;BME280;6451;42.630;23.382;2023-10-09T10:14:11;95118.28;;;16.70;43.84
12775;BME280;6451;42.630;23.382;2023-10-09T10:17:08;95079.44;;;16.64;43.40
12775;BME280;6451;42.630;23.382;2023-10-09T10:20:05;95123.97;;;16.80;43.06
12775;BME280;6451;42.630;23.382;2023-10-09T10:23:18;95119.81;;;16.90;42.86
12775;BME280;6451;42.630;23.382;2023-10-09T10:25:46;95107.56;;;16.84;41.69
12775;BME280;6451;42.630;23.382;2023-10-09T10:28:17;95097.00;;;16.86;41.42
12775;BME280;6451;42.630;23.382;2023-10-09T10:30:55;95089.28;;;17.18;41.01
12775;BME280;6451;42.630;23.382;2023-10-09T10:33:25;95092.41;;;17.46;41.46
12775;BME280;6451;42.630;23.382;2023-10-09T10:35:53;95092.78;;;17.45;41.00
12775;BME280;6451;42.630;23.382;2023-10-09T10:38:28;95074.16;;;17.58;41.01
12775;BME280;6451;42.630;23.382;2023-10-09T10:41:14;95067.53;;;17.62;40.92
12775;BME280;6451;42.630;23.382;2023-10-09T10:43:43;95067.53;;;17.62;41.25
12775;BME280;6451;42.630;23.382;2023-10-09T10:46:26;95057.25;;;17.56;40.44
12775;BME280;6451;42.630;23.382;2023-10-09T10:49:08;95057.97;;;17.49;40.08
12775;BME280;6451;42.630;23.382;2023-10-09T10:51:46;95053.69;;;17.51;39.98
12775;BME280;6451;42.630;23.382;2023-10-09T10:54:25;95044.66;;;17.51;40.25
12775;BME280;6451;42.630;23.382;2023-10-09T10:57:16;95053.03;;;17.62;40.11
12775;BME280;6451;42.630;23.382;2023-10-09T10:59:55;95039.09;;;17.74;39.26
12775;BME280;6451;42.630;23.382;2023-10-09T11:02:42;95041.84;;;17.77;38.93
12775;BME280;6451;42.630;23.382;2023-10-09T11:05:08;95042.25;;;17.76;39.11
12775;BME280;6451;42.630;23.382;2023-10-09T11:07:50;95035.16;;;17.71;39.59
12775;BME280;6451;42.630;23.382;2023-10-09T11:10:22;95038.59;;;17.68;39.97
12775;BME280;6451;42.630;23.382;2023-10-09T11:12:54;95033.41;;;17.93;39.90
12775;BME280;6451;42.630;23.382;2023-10-09T11:15:47;95028.53;;;18.13;40.03
12775;BME280;6451;42.630;23.382;2023-10-09T11:18:23;95022.63;;;18.11;39.37
12775;BME280;6451;42.630;23.382;2023-10-09T11:20:54;95016.91;;;18.30;38.79
12775;BME280;6451;42.630;23.382;2023-10-09T11:23:44;94977.91;;;18.14;39.17
12775;BME280;6451;42.630;23.382;2023-10-09T11:26:24;94972.81;;;18.16;39.61
12775;BME280;6451;42.630;23.382;2023-10-09T11:29:06;94984.78;;;18.38;39.83
12775;BME280;6451;42.630;23.382;2023-10-09T11:31:41;94979.44;;;18.59;39.35
12775;BME280;6451;42.630;23.382;2023-10-09T11:34:22;94985.16;;;18.37;38.96
12775;BME280;6451;42.630;23.382;2023-10-09T11:36:58;94984.22;;;18.18;39.59
12775;BME280;6451;42.630;23.382;2023-10-09T11:39:26;94975.22;;;18.18;39.51
12775;BME280;6451;42.630;23.382;2023-10-09T11:42:02;94990.22;;;18.31;39.45
12775;BME280;6451;42.630;23.382;2023-10-09T11:44:39;94982.13;;;18.49;39.03
12775;BME280;6451;42.630;23.382;2023-10-09T11:47:07;94998.25;;;18.50;38.77
12775;BME280;6451;42.630;23.382;2023-10-09T11:50:01;94979.78;;;18.51;38.29
12775;BME280;6451;42.630;23.382;2023-10-09T11:52:56;94973.09;;;18.48;38.47
12775;BME280;6451;42.630;23.382;2023-10-09T11:55:35;94964.94;;;18.62;38.41
12775;BME280;6451;42.630;23.382;2023-10-09T11:58:03;94964.94;;;18.62;38.52
12775;BME280;6451;42.630;23.382;2023-10-09T12:00:32;94956.81;;;18.73;38.20
12775;BME280;6451;42.630;23.382;2023-10-09T12:03:10;94944.63;;;18.78;38.35
12775;BME280;6451;42.630;23.382;2023-10-09T12:05:40;94921.06;;;18.77;37.96
12775;BME280;6451;42.630;23.382;2023-10-09T12:08:11;94927.88;;;19.01;38.54
12775;BME280;6451;42.630;23.382;2023-10-09T12:10:41;94915.34;;;19.03;37.88
12775;BME280;6451;42.630;23.382;2023-10-09T12:13:08;94925.91;;;18.98;37.57
12775;BME280;6451;42.630;23.382;2023-10-09T12:15:35;94908.66;;;19.08;37.33
12775;BME280;6451;42.630;23.382;2023-10-09T12:18:06;94909.09;;;19.24;37.06
12775;BME280;6451;42.630;23.382;2023-10-09T12:20:42;94906.34;;;19.17;37.04
12775;BME280;6451;42.630;23.382;2023-10-09T12:23:15;94905.13;;;19.07;37.33
12775;BME280;6451;42.630;23.382;2023-10-09T12:25:42;94915.00;;;19.23;36.75
12775;BME280;6451;42.630;23.382;2023-10-09T12:28:11;94912.31;;;19.33;36.37
12775;BME280;6451;42.630;23.382;2023-10-09T12:30:39;94883.56;;;19.20;35.73
12775;BME280;6451;42.630;23.382;2023-10-09T12:33:07;94880.81;;;19.31;35.34
12775;BME280;6451;42.630;23.382;2023-10-09T12:35:39;94897.44;;;19.59;35.15
12775;BME280;6451;42.630;23.382;2023-10-09T12:38:08;94889.94;;;19.49;35.81
12775;BME280;6451;42.630;23.382;2023-10-09T12:40:36;94880.09;;;19.52;35.70
12775;BME280;6451;42.630;23.382;2023-10-09T12:43:06;94875.38;;;19.52;35.36
12775;BME280;6451;42.630;23.382;2023-10-09T12:45:41;94888.75;;;19.50;35.84
12775;BME280;6451;42.630;23.382;2023-10-09T12:48:08;94878.91;;;19.42;35.75
12775;BME280;6451;42.630;23.382;2023-10-09T12:50:35;94872.31;;;19.64;35.68
12775;BME280;6451;42.630;23.382;2023-10-09T12:53:08;94871.53;;;19.75;34.52
12775;BME280;6451;42.630;23.382;2023-10-09T12:55:37;94867.19;;;19.91;31.44
12775;BME280;6451;42.630;23.382;2023-10-09T12:58:06;94861.31;;;19.89;30.80
12775;BME280;6451;42.630;23.382;2023-10-09T13:00:34;94858.94;;;20.02;30.69
12775;BME280;6451;42.630;23.382;2023-10-09T13:03:05;94857.34;;;20.01;33.74
12775;BME280;6451;42.630;23.382;2023-10-09T13:05:45;94853.03;;;19.86;34.02
12775;BME280;6451;42.630;23.382;2023-10-09T13:08:22;94840.84;;;19.83;33.53
12775;BME280;6451;42.630;23.382;2023-10-09T13:10:51;94864.44;;;19.88;32.91
12775;BME280;6451;42.630;23.382;2023-10-09T13:13:26;94857.38;;;19.90;29.95
12775;BME280;6451;42.630;23.382;2023-10-09T13:16:06;94844.78;;;19.96;29.31
12775;BME280;6451;42.630;23.382;2023-10-09T13:18:33;94837.28;;;20.15;29.20
12775;BME280;6451;42.630;23.382;2023-10-09T13:21:00;94837.28;;;20.18;29.23
12775;BME280;6451;42.630;23.382;2023-10-09T13:23:31;94822.31;;;20.23;29.23
12775;BME280;6451;42.630;23.382;2023-10-09T13:26:07;94825.84;;;20.23;28.57
12775;BME280;6451;42.630;23.382;2023-10-09T13:28:49;94819.53;;;20.30;28.82
12775;BME280;6451;42.630;23.382;2023-10-09T13:31:18;94827.81;;;20.26;28.39
12775;BME280;6451;42.630;23.382;2023-10-09T13:33:47;94834.53;;;20.15;27.84
12775;BME280;6451;42.630;23.382;2023-10-09T13:36:15;94801.09;;;20.06;28.04